Time;durP1;ratioP1;P1;durP2;ratioP2;P2;SDS_P1;SDS_P2;PMS_P1;PMS_P2;Temp;Humidity;BMP_temperature;BMP_pressure;BME280_temperature;BME280_humidity;BME280_pressure;Samples;Min_cycle;Max_cycle;Signal;HPM_P1;HPM_P2
2021/11/24 00:01:04;;;;;;;5.83;2.10;;;;;;;4.73;100.00;99927.90;1748922;80;27170;-76
2021/11/24 00:03:31;;;;;;;7.33;2.77;;;;;;;4.71;100.00;99919.73;1747570;80;21092;-75
2021/11/24 00:06:00;;;;;;;5.47;2.25;;;;;;;4.70;100.00;99912.88;1750008;81;21081;-75
2021/11/24 00:08:26;;;;;;;8.00;3.17;;;;;;;4.70;100.00;99912.88;1752507;81;21178;-73
2021/11/24 00:10:54;;;;;;;7.08;2.37;;;;;;;4.70;100.00;99916.75;1754491;80;21051;-75
2021/11/24 00:13:21;;;;;;;5.75;2.20;;;;;;;4.71;100.00;99921.03;1748905;80;26735;-75
2021/11/24 00:15:47;;;;;;;6.00;2.35;;;;;;;4.70;100.00;99927.10;1759752;80;21663;-75
2021/11/24 00:18:14;;;;;;;9.63;2.77;;;;;;;4.69;100.00;99917.61;1759063;80;21011;-74
2021/11/24 00:20:45;;;;;;;7.87;3.45;;;;;;;4.69;100.00;99925.37;1763302;80;21080;-73
2021/11/24 00:23:11;;;;;;;6.60;2.55;;;;;;;4.68;100.00;99914.63;1760230;80;21025;-74
2021/11/24 00:25:38;;;;;;;9.28;2.70;;;;;;;4.72;100.00;99914.12;1759450;79;22150;-74
2021/11/24 00:28:05;;;;;;;5.78;3.10;;;;;;;4.76;100.00;99925.25;1756252;80;21066;-74
2021/11/24 00:30:32;;;;;;;6.80;3.47;;;;;;;4.79;100.00;99920.88;1766247;80;21025;-72
2021/11/24 00:33:00;;;;;;;11.30;2.30;;;;;;;4.80;100.00;99915.27;1757981;80;21059;-74
2021/11/24 00:35:26;;;;;;;;;;;;;;;4.81;100.00;99915.66;1744864;80;21077;-74
2021/11/24 00:37:53;;;;;;;8.98;2.65;;;;;;;4.83;100.00;99911.31;1756138;80;20507;-75
2021/11/24 00:40:22;;;;;;;6.90;2.40;;;;;;;4.86;100.00;99919.02;1755746;80;21001;-75
2021/11/24 00:42:49;;;;;;;7.87;2.35;;;;;;;4.87;100.00;99912.94;1759917;80;20912;-74
2021/11/24 00:45:16;;;;;;;9.85;3.85;;;;;;;4.89;100.00;99911.19;1753587;79;21054;-74
2021/11/24 00:47:43;;;;;;;7.70;3.00;;;;;;;4.86;100.00;99919.02;1756461;80;20997;-75
2021/11/24 00:50:09;;;;;;;4.00;1.83;;;;;;;4.88;100.00;99919.39;1757205;80;21485;-74
2021/11/24 00:52:36;;;;;;;6.10;2.02;;;;;;;4.87;100.00;99907.77;1757134;80;21324;-74
2021/11/24 00:55:04;;;;;;;8.80;2.17;;;;;;;4.88;100.00;99910.34;1761954;80;22243;-73
2021/11/24 00:57:31;;;;;;;6.72;2.12;;;;;;;4.89;100.00;99911.19;1757927;80;20983;-75
2021/11/24 01:01:05;;;;;;;4.35;1.85;;;;;;;4.94;100.00;99917.12;1761655;79;22857;-75
2021/11/24 01:03:32;;;;;;;;;;;;;;;4.91;100.00;99918.48;1741845;81;21084;-74
2021/11/24 01:05:58;;;;;;;3.05;1.60;;;;;;;4.91;100.00;99909.42;1744298;81;21021;-75
2021/11/24 01:08:25;;;;;;;5.37;2.20;;;;;;;4.92;100.00;99911.12;1742111;81;21057;-75
2021/11/24 01:10:52;;;;;;;5.00;1.80;;;;;;;4.90;100.00;99916.75;1739682;81;20938;-75
2021/11/24 01:13:19;;;;;;;4.40;1.57;;;;;;;4.89;100.00;99904.27;1738363;81;21108;-75
2021/11/24 01:15:47;;;;;;;5.85;1.87;;;;;;;4.88;100.00;99901.73;1739327;81;21026;-75
2021/11/24 01:18:15;;;;;;;5.60;2.22;;;;;;;4.87;100.00;99906.47;1693062;83;21918;-74
2021/11/24 01:20:42;;;;;;;6.58;3.58;;;;;;;4.87;100.00;99909.94;1732924;82;21505;-74
2021/11/24 01:25:51;;;;;;;5.00;1.42;;;;;;;4.89;100.00;99891.78;1856064;75;22653;-75
2021/11/24 01:28:17;;;;;;;4.15;2.08;;;;;;;4.85;100.00;99894.03;1801760;77;21052;-75
2021/11/24 01:30:44;;;;;;;3.65;1.80;;;;;;;4.83;100.00;99891.47;1802085;77;21465;-75
2021/11/24 01:33:11;;;;;;;5.47;1.40;;;;;;;4.83;100.00;99889.33;1804507;77;20943;-75
2021/11/24 01:35:38;;;;;;;4.45;1.40;;;;;;;4.82;100.00;99885.89;1760392;79;21017;-74
2021/11/24 01:38:05;;;;;;;3.27;1.30;;;;;;;4.81;100.00;99887.20;1740149;80;20987;-75
2021/11/24 01:40:33;;;;;;;7.53;6.03;;;;;;;4.83;100.00;99886.74;1757084;79;21060;-75
2021/11/24 01:43:00;;;;;;;4.20;1.67;;;;;;;4.83;100.00;99877.69;1765034;79;21617;-75
2021/11/24 01:45:27;;;;;;;4.17;1.87;;;;;;;4.83;100.00;99871.22;1730282;80;21623;-74
2021/11/24 01:47:54;;;;;;;;;;;;;;;4.85;100.00;99873.34;1745218;79;21651;-74
2021/11/24 01:50:21;;;;;;;3.77;1.40;;;;;;;4.87;100.00;99876.72;1762070;79;20318;-74
2021/11/24 01:52:48;;;;;;;3.67;1.57;;;;;;;4.89;100.00;99871.08;1759954;79;21550;-74
2021/11/24 01:55:16;;;;;;;4.33;1.50;;;;;;;4.93;100.00;99864.97;1758567;79;21130;-72
2021/11/24 01:57:49;;;;;;;4.12;1.40;;;;;;;4.92;100.00;99864.09;1764096;79;22095;-74
2021/11/24 02:00:23;;;;;;;2.45;1.70;;;;;;;4.92;100.00;99864.54;1765308;79;21004;-74
2021/11/24 02:02:52;;;;;;;3.55;1.70;;;;;;;4.93;100.00;99858.50;1759161;79;21000;-73
2021/11/24 02:05:19;;;;;;;2.75;2.40;;;;;;;4.97;100.00;99851.52;1753318;80;21239;-75
2021/11/24 02:07:47;;;;;;;3.50;1.55;;;;;;;4.93;100.00;99850.73;1771968;79;21085;-75
2021/11/24 02:10:14;;;;;;;5.67;1.37;;;;;;;4.94;100.00;99852.43;1766016;78;20951;-75
2021/11/24 02:12:41;;;;;;;3.85;1.37;;;;;;;4.97;100.00;99860.12;1754474;79;21056;-73
2021/11/24 02:15:10;;;;;;;4.67;1.60;;;;;;;4.98;100.00;99856.64;1760889;79;21137;-75
2021/11/24 02:17:37;;;;;;;3.98;1.50;;;;;;;4.99;100.00;99854.48;1805623;77;20962;-74
2021/11/24 02:20:06;;;;;;;4.25;1.65;;;;;;;4.97;100.00;99858.83;1807246;77;21100;-74
2021/11/24 02:22:33;;;;;;;4.12;1.50;;;;;;;4.96;100.00;99858.43;1801450;77;21142;-74
2021/11/24 02:24:59;;;;;;;3.83;1.47;;;;;;;4.97;100.00;99850.22;1808478;77;21015;-74
2021/11/24 02:27:26;;;;;;;3.27;1.60;;;;;;;4.98;100.00;99846.28;1811532;77;21001;-74
2021/11/24 02:29:53;;;;;;;3.10;1.77;;;;;;;4.96;100.00;99836.44;1801539;77;21540;-74
2021/11/24 02:32:20;;;;;;;3.97;1.80;;;;;;;4.95;100.00;99833.42;1802466;78;21083;-74
2021/11/24 02:34:46;;;;;;;2.90;1.47;;;;;;;4.98;100.00;99831.20;1798288;77;21034;-74
2021/11/24 02:37:13;;;;;;;2.77;1.63;;;;;;;5.00;100.00;99834.17;1803874;77;21152;-74
2021/11/24 02:39:40;;;;;;;4.83;1.20;;;;;;;5.02;100.00;99829.82;1812022;77;21131;-74
2021/11/24 02:42:07;;;;;;;3.40;1.60;;;;;;;5.04;100.00;99833.23;1804245;77;20942;-74
2021/11/24 02:44:40;;;;;;;3.60;1.42;;;;;;;5.07;100.00;99835.75;1803408;77;21543;-74
2021/11/24 02:47:11;;;;;;;5.92;2.08;;;;;;;5.10;100.00;99822.73;1790240;78;21384;-75
2021/11/24 02:49:41;;;;;;;4.65;1.70;;;;;;;5.10;100.00;99824.48;1790005;78;21015;-75
2021/11/24 02:52:10;;;;;;;2.92;1.40;;;;;;;5.08;100.00;99819.32;1802184;77;20947;-75
2021/11/24 02:54:37;;;;;;;3.47;1.47;;;;;;;5.06;100.00;99817.20;1800325;77;20912;-75
2021/11/24 02:57:07;;;;;;;4.33;1.30;;;;;;;5.06;100.00;99812.03;1802411;77;21639;-75
2021/11/24 02:59:37;;;;;;;4.80;1.62;;;;;;;5.06;100.00;99819.80;1807415;77;21576;-75
2021/11/24 03:02:04;;;;;;;5.17;1.67;;;;;;;5.07;100.00;99816.75;1809800;77;21851;-75
2021/11/24 03:04:33;;;;;;;3.52;1.37;;;;;;;5.07;100.00;99816.34;1775721;77;21312;-75
2021/11/24 03:07:03;;;;;;;3.62;1.40;;;;;;;5.08;100.00;99816.73;1801011;77;20989;-73
2021/11/24 03:09:30;;;;;;;3.55;1.75;;;;;;;5.09;100.00;99808.07;1802220;77;21560;-75
2021/11/24 03:11:57;;;;;;;3.62;1.25;;;;;;;5.09;100.00;99811.95;1803395;77;21017;-75
2021/11/24 03:14:24;;;;;;;1.70;0.88;;;;;;;5.07;100.00;99804.69;1803610;77;21051;-74
2021/11/24 03:16:51;;;;;;;1.60;0.75;;;;;;;5.07;100.00;99805.98;1792540;77;21079;-75
2021/11/24 03:19:18;;;;;;;2.43;1.10;;;;;;;5.07;100.00;99796.92;1809855;77;21130;-74
2021/11/24 03:21:44;;;;;;;2.10;0.70;;;;;;;5.04;100.00;99797.00;1794883;77;21115;-73
2021/11/24 03:24:11;;;;;;;4.20;0.83;;;;;;;5.03;100.00;99797.87;1758006;80;21107;-73
2021/11/24 03:26:38;;;;;;;2.30;0.98;;;;;;;5.06;100.00;99802.97;1795118;77;20984;-74
2021/11/24 03:29:05;;;;;;;1.22;0.50;;;;;;;5.06;100.00;99799.09;1802678;76;21022;-73
2021/11/24 03:31:32;;;;;;;1.30;0.97;;;;;;;5.06;100.00;99796.95;1810890;77;21045;-73
2021/11/24 03:33:58;;;;;;;1.77;0.73;;;;;;;5.07;100.00;99799.52;1812360;77;21395;-73
2021/11/24 03:36:25;;;;;;;1.72;0.80;;;;;;;5.09;100.00;99796.88;1799283;77;20876;-74
2021/11/24 03:38:52;;;;;;;4.13;1.33;;;;;;;5.07;100.00;99789.16;1810782;77;21545;-73
2021/11/24 03:41:19;;;;;;;2.13;1.00;;;;;;;5.10;100.00;99781.33;1811501;77;22457;-74
2021/11/24 03:43:46;;;;;;;1.32;0.75;;;;;;;5.12;100.00;99784.70;1806622;77;21081;-74
2021/11/24 03:46:13;;;;;;;4.40;1.10;;;;;;;5.14;100.00;99785.52;1790885;77;21260;-75
2021/11/24 03:48:39;;;;;;;1.50;1.00;;;;;;;5.14;100.00;99771.29;1800218;76;21013;-74
2021/11/24 03:51:06;;;;;;;4.83;0.95;;;;;;;5.15;100.00;99779.48;1811200;77;20947;-74
2021/11/24 03:53:35;;;;;;;3.12;1.65;;;;;;;5.14;100.00;99780.34;1811572;77;21643;-75
2021/11/24 03:56:02;;;;;;;3.67;1.77;;;;;;;5.18;100.00;99780.27;1797335;77;21515;-75
2021/11/24 03:58:29;;;;;;;3.35;2.12;;;;;;;5.20;100.00;99781.94;1798164;77;21091;-75
2021/11/24 04:00:55;;;;;;;5.50;0.90;;;;;;;5.24;100.00;99784.03;1808969;77;21188;-76
2021/11/24 04:03:22;;;;;;;3.47;1.43;;;;;;;5.25;100.00;99789.60;1814243;77;20958;-75
2021/11/24 04:05:52;;;;;;;2.17;0.70;;;;;;;5.27;100.00;99795.60;1805491;77;21111;-74
2021/11/24 04:08:17;;;;;;;5.45;1.10;;;;;;;5.30;100.00;99788.60;1809312;77;21076;-74
2021/11/24 04:10:44;;;;;;;4.40;1.20;;;;;;;5.34;100.00;99781.59;1802159;77;21986;-74
2021/11/24 04:13:11;;;;;;;2.33;1.30;;;;;;;5.32;100.00;99779.48;1814109;77;21634;-74
2021/11/24 04:15:38;;;;;;;4.05;1.10;;;;;;;5.32;100.00;99780.78;1805133;77;21014;-75
2021/11/24 04:18:05;;;;;;;2.90;1.12;;;;;;;5.33;100.00;99777.32;1771881;79;21584;-75
2021/11/24 04:20:32;;;;;;;2.17;1.20;;;;;;;5.33;100.00;99772.98;1734476;80;21115;-75
2021/11/24 04:22:59;;;;;;;2.35;1.20;;;;;;;5.36;100.00;99773.36;1744356;80;21247;-75
2021/11/24 04:25:26;;;;;;;4.15;1.52;;;;;;;5.37;100.00;99784.11;1733844;80;21005;-74
2021/11/24 04:27:52;;;;;;;4.57;1.87;;;;;;;5.37;100.00;99782.36;1818493;77;20915;-75
2021/11/24 04:30:20;;;;;;;3.17;1.20;;;;;;;5.38;100.00;99781.50;1798058;77;21006;-75
2021/11/24 04:32:47;;;;;;;3.35;1.40;;;;;;;5.38;100.00;99783.24;1798023;77;20988;-74
2021/11/24 04:35:14;;;;;;;3.30;1.40;;;;;;;5.40;100.00;99782.73;1796031;77;21458;-75
2021/11/24 04:37:41;;;;;;;3.77;1.30;;;;;;;5.42;100.00;99777.08;1806436;77;21141;-74
2021/11/24 04:40:09;;;;;;;4.03;2.80;;;;;;;5.43;100.00;99773.59;1809740;77;21054;-75
2021/11/24 04:42:38;;;;;;;3.42;1.52;;;;;;;5.44;100.00;99774.02;1761835;79;21061;-75
2021/11/24 04:45:05;;;;;;;4.03;1.10;;;;;;;5.46;100.00;99772.25;1759282;79;21130;-75
2021/11/24 04:47:32;;;;;;;;;;;;;;;5.47;100.00;99777.82;1802218;77;21608;-74
2021/11/24 04:50:00;;;;;;;4.72;1.90;;;;;;;5.47;100.00;99779.11;1803524;77;20208;-75
2021/11/24 04:52:26;;;;;;;5.42;2.10;;;;;;;5.47;100.00;99783.00;1790155;77;20943;-76
2021/11/24 04:54:53;;;;;;;2.50;1.07;;;;;;;5.50;100.00;99777.73;1780314;77;21110;-75
2021/11/24 04:57:20;;;;;;;7.67;1.97;;;;;;;5.50;100.00;99784.22;1786927;78;21508;-75
2021/11/24 04:59:47;;;;;;;4.63;1.53;;;;;;;5.48;100.00;99784.69;1802538;77;21542;-75
2021/11/24 05:02:14;;;;;;;2.98;1.32;;;;;;;5.49;100.00;99790.30;1812407;77;21534;-73
2021/11/24 05:04:41;;;;;;;;;;;;;;;5.50;100.00;99789.84;1817646;77;21012;-74
2021/11/24 05:07:08;;;;;;;5.37;1.40;;;;;;;5.50;100.00;99788.09;1811555;77;20492;-73
2021/11/24 05:09:35;;;;;;;4.93;1.60;;;;;;;5.49;100.00;99790.30;1814683;77;21258;-75
2021/11/24 05:12:04;;;;;;;2.47;1.75;;;;;;;5.49;100.00;99791.59;1814166;77;21135;-74
2021/11/24 05:14:35;;;;;;;9.68;2.98;;;;;;;5.48;100.00;99789.02;1823510;77;21086;-74
2021/11/24 05:17:05;;;;;;;3.70;2.10;;;;;;;5.45;100.00;99782.18;1793539;77;21057;-74
2021/11/24 05:19:35;;;;;;;2.52;1.30;;;;;;;5.45;100.00;99783.92;1802722;77;20966;-75
2021/11/24 05:22:01;;;;;;;3.77;1.30;;;;;;;5.44;100.00;99784.38;1807503;77;20974;-74
2021/11/24 05:24:28;;;;;;;6.42;1.30;;;;;;;5.42;100.00;99783.55;1806479;77;21021;-74
2021/11/24 05:26:55;;;;;;;3.30;1.20;;;;;;;5.41;100.00;99779.28;1807060;77;21074;-75
2021/11/24 05:29:22;;;;;;;2.33;0.90;;;;;;;5.41;100.00;99780.57;1807157;77;21335;-75
2021/11/24 05:31:49;;;;;;;2.50;1.20;;;;;;;5.41;100.00;99788.34;1802917;77;22308;-75
2021/11/24 05:34:16;;;;;;;4.10;0.93;;;;;;;5.40;100.00;99784.03;1798717;77;20970;-74
2021/11/24 05:36:43;;;;;;;5.60;1.25;;;;;;;5.39;100.00;99791.41;1805465;77;21108;-75
2021/11/24 05:39:11;;;;;;;1.85;0.80;;;;;;;5.39;100.00;99795.29;1796329;77;21034;-75
2021/11/24 05:41:41;;;;;;;2.15;0.82;;;;;;;5.40;100.00;99784.03;1807203;77;21085;-74
2021/11/24 05:44:26;;;;;;;4.47;0.93;;;;;;;5.40;100.00;99786.62;1800784;77;21103;-74
2021/11/24 05:46:58;;;;;;;6.90;1.35;;;;;;;5.36;100.00;99781.97;1796460;77;21093;-74
2021/11/24 05:49:28;;;;;;;4.80;1.62;;;;;;;5.36;100.00;99782.42;1814910;77;21107;-75
2021/11/24 05:51:56;;;;;;;3.52;1.20;;;;;;;5.37;100.00;99784.11;1775875;77;21111;-75
2021/11/24 05:54:25;;;;;;;3.47;1.07;;;;;;;5.38;100.00;99783.24;1805340;77;20980;-75
2021/11/24 05:56:52;;;;;;;5.20;1.15;;;;;;;5.40;100.00;99781.44;1794699;77;20979;-74
2021/11/24 05:59:20;;;;;;;2.85;0.72;;;;;;;5.41;100.00;99775.39;1796962;77;21651;-75
2021/11/24 06:01:47;;;;;;;3.00;0.90;;;;;;;5.40;100.00;99776.27;1793105;77;21096;-75
2021/11/24 06:04:14;;;;;;;4.87;1.15;;;;;;;5.43;100.00;99777.92;1816638;77;21063;-74
2021/11/24 06:06:41;;;;;;;4.10;1.00;;;;;;;5.43;100.00;99778.77;1803901;77;21137;-75
2021/11/24 06:09:07;;;;;;;3.52;0.72;;;;;;;5.45;100.00;99775.70;1804881;77;21062;-75
2021/11/24 06:11:35;;;;;;;2.20;0.65;;;;;;;5.43;100.00;99786.54;1815455;77;21616;-74
2021/11/24 06:14:01;;;;;;;4.40;0.82;;;;;;;5.39;100.00;99782.34;1800792;77;21963;-74
2021/11/24 06:16:30;;;;;;;4.15;0.93;;;;;;;5.38;100.00;99783.24;1747759;79;21704;-75
2021/11/24 06:18:57;;;;;;;3.15;0.80;;;;;;;5.38;100.00;99781.50;1728572;81;21569;-76
2021/11/24 06:21:23;;;;;;;3.92;1.00;;;;;;;5.36;100.00;99781.97;1722306;81;21044;-76
2021/11/24 06:24:05;;;;;;;2.77;0.65;;;;;;;5.37;100.00;99778.93;1732030;80;21185;-72
2021/11/24 06:26:31;;;;;;;2.58;1.12;;;;;;;5.36;100.00;99777.24;1728447;80;21126;-72
2021/11/24 06:28:58;;;;;;;3.52;1.10;;;;;;;5.30;100.00;99783.42;1738235;80;21151;-74
2021/11/24 06:31:26;;;;;;;6.65;1.45;;;;;;;5.30;100.00;99783.88;1738862;80;21066;-71
2021/11/24 06:33:53;;;;;;;4.22;1.12;;;;;;;5.28;100.00;99782.60;1743148;80;21115;-71
2021/11/24 06:36:24;;;;;;;4.87;1.70;;;;;;;5.27;100.00;99786.54;1741787;80;21198;-72
2021/11/24 06:38:48;;;;;;;2.92;1.42;;;;;;;5.25;100.00;99784.42;1729203;80;21106;-71
2021/11/24 06:41:15;;;;;;;4.65;2.45;;;;;;;5.22;100.00;99784.50;1733467;80;21174;-72
2021/11/24 06:43:42;;;;;;;6.28;2.22;;;;;;;5.21;100.00;99790.55;1728364;80;22123;-71
2021/11/24 06:46:09;;;;;;;4.17;1.07;;;;;;;5.19;100.00;99788.47;1729586;80;21138;-71
2021/11/24 06:48:36;;;;;;;6.65;1.10;;;;;;;5.19;100.00;99796.23;1734170;80;21169;-72
2021/11/24 06:51:05;;;;;;;11.55;2.12;;;;;;;5.18;100.00;99800.98;1734161;80;21148;-71
2021/11/24 06:53:32;;;;;;;37.85;6.28;;;;;;;5.16;100.00;99808.80;1736973;79;21001;-71
2021/11/24 06:55:59;;;;;;;4.03;1.23;;;;;;;5.20;100.00;99796.63;1746003;79;21145;-72
2021/11/24 06:58:27;;;;;;;5.20;1.83;;;;;;;5.20;100.00;99796.63;1756069;79;21489;-71
2021/11/24 07:00:54;;;;;;;26.37;5.47;;;;;;;5.19;100.00;99797.52;1768797;79;21005;-71
2021/11/24 07:03:21;;;;;;;68.37;11.83;;;;;;;5.23;100.00;99809.48;1758646;79;21062;-71
2021/11/24 07:05:48;;;;;;;;;;;;;;;5.28;100.00;99799.88;1781566;78;21491;-72
2021/11/24 07:08:15;;;;;;;43.73;7.10;;;;;;;5.34;100.00;99806.20;1735260;80;20868;-71
2021/11/24 07:10:42;;;;;;;106.90;18.93;;;;;;;5.34;100.00;99802.31;1801370;77;21088;-73
2021/11/24 07:13:09;;;;;;;84.55;11.85;;;;;;;5.39;100.00;99805.64;1808106;77;21036;-73
2021/11/24 07:15:35;;;;;;;14.67;3.40;;;;;;;5.43;100.00;99807.70;1803568;77;21206;-73
2021/11/24 07:18:03;;;;;;;46.55;11.50;;;;;;;5.44;100.00;99814.16;1818657;76;21009;-73
2021/11/24 07:20:30;;;;;;;54.93;12.03;;;;;;;5.46;100.00;99809.80;1800018;77;21349;-74
2021/11/24 07:22:57;;;;;;;21.50;6.25;;;;;;;5.51;100.00;99804.03;1818596;77;21545;-70
2021/11/24 07:25:24;;;;;;;67.67;8.08;;;;;;;5.53;100.00;99806.14;1788366;77;21151;-71
2021/11/24 07:27:51;;;;;;;41.13;8.33;;;;;;;5.56;100.00;99808.66;1811175;77;21501;-72
2021/11/24 07:30:19;;;;;;;42.17;5.70;;;;;;;5.58;100.00;99815.95;1809373;77;20942;-71
2021/11/24 07:32:46;;;;;;;20.40;3.08;;;;;;;5.63;100.00;99822.73;1807925;77;20952;-72
2021/11/24 07:35:13;;;;;;;14.50;1.60;;;;;;;5.66;100.00;99820.95;1813633;77;21107;-71
2021/11/24 07:37:40;;;;;;;7.60;1.57;;;;;;;5.68;100.00;99825.62;1793567;77;21087;-72
2021/11/24 07:40:12;;;;;;;3.35;1.00;;;;;;;5.69;100.00;99823.45;1803515;77;21897;-72
2021/11/24 07:42:40;;;;;;;5.42;1.25;;;;;;;5.72;100.00;99823.83;1803976;77;21006;-73
2021/11/24 07:45:08;;;;;;;50.20;3.20;;;;;;;5.72;100.00;99823.83;1808556;77;21013;-73
2021/11/24 07:47:36;;;;;;;36.35;2.92;;;;;;;5.75;100.00;99826.33;1798152;77;20963;-73
2021/11/24 07:50:05;;;;;;;49.08;8.50;;;;;;;5.80;100.00;99824.48;1803807;77;21690;-73
2021/11/24 07:52:34;;;;;;;25.50;5.87;;;;;;;5.83;100.00;99819.21;1780227;78;21702;-72
2021/11/24 07:55:04;;;;;;;13.70;3.33;;;;;;;5.89;100.00;99819.05;1796696;77;21060;-73
2021/11/24 07:57:32;;;;;;;8.75;2.80;;;;;;;5.95;100.00;99824.09;1785731;77;21019;-74
2021/11/24 07:59:59;;;;;;;6.42;2.50;;;;;;;5.98;100.00;99826.59;1809834;77;21172;-74
2021/11/24 08:02:26;;;;;;;5.90;1.70;;;;;;;6.02;100.00;99825.64;1803429;77;21746;-73
2021/11/24 08:04:53;;;;;;;4.33;1.12;;;;;;;6.05;100.00;99827.30;1796449;77;21127;-74
2021/11/24 08:07:20;;;;;;;38.38;6.67;;;;;;;6.08;100.00;99822.03;1808958;77;21006;-74
2021/11/24 08:09:46;;;;;;;37.45;6.25;;;;;;;6.14;100.00;99823.61;1816379;77;20995;-74
2021/11/24 08:12:14;;;;;;;134.97;20.33;;;;;;;6.17;100.00;99815.74;1797147;77;21588;-72
2021/11/24 08:14:41;;;;;;;66.45;10.78;;;;;;;6.20;100.00;99820.84;1786844;78;21026;-77
2021/11/24 08:17:08;;;;;;;86.20;13.88;;;;;;;6.30;100.00;99822.27;1808774;77;21122;-73
2021/11/24 08:19:35;;;;;;;53.53;12.47;;;;;;;6.42;100.00;99821.94;1811724;77;21072;-73
2021/11/24 08:22:02;;;;;;;181.35;17.95;;;;;;;6.47;100.00;99822.66;1801323;77;21765;-75
2021/11/24 08:24:29;;;;;;;168.72;20.05;;;;;;;6.46;100.00;99828.72;1800094;77;26706;-74
2021/11/24 08:26:56;;;;;;;27.35;6.17;;;;;;;6.46;100.00;99823.98;1761864;79;21631;-74
2021/11/24 08:29:23;;;;;;;123.75;13.75;;;;;;;6.44;100.00;99833.13;1748981;79;21359;-73
2021/11/24 08:31:50;;;;;;;174.47;21.30;;;;;;;6.37;100.00;99828.98;1731725;80;24815;-72
2021/11/24 08:34:18;;;;;;;59.90;10.00;;;;;;;6.38;100.00;99835.86;1801846;77;21116;-73
2021/11/24 08:36:44;;;;;;;90.97;16.02;;;;;;;6.40;100.00;99825.01;1803305;77;21057;-74
2021/11/24 08:39:14;;;;;;;124.33;19.50;;;;;;;6.45;100.00;99827.03;1799116;77;21096;-72
2021/11/24 08:41:40;;;;;;;;;;;;;;;6.50;100.00;99825.16;1783737;77;21323;-73
2021/11/24 08:44:07;;;;;;;115.25;17.35;;;;;;;6.52;100.00;99832.03;1801687;77;20164;-75
2021/11/24 08:46:35;;;;;;;28.63;6.60;;;;;;;6.48;100.00;99829.53;1812655;77;21059;-73
2021/11/24 08:49:02;;;;;;;27.80;5.78;;;;;;;6.47;100.00;99826.55;1804332;77;21561;-72
2021/11/24 08:51:30;;;;;;;273.00;23.47;;;;;;;6.50;100.00;99834.23;1776195;79;20978;-71
2021/11/24 08:53:57;;;;;;;67.70;5.03;;;;;;;6.50;100.00;99832.94;1760750;79;21013;-71
2021/11/24 08:56:44;;;;;;;29.52;4.50;;;;;;;6.56;100.00;99831.91;1786475;78;21580;-70
2021/11/24 08:59:12;;;;;;;9.45;2.02;;;;;;;6.60;100.00;99836.55;1780672;78;21156;-71
2021/11/24 09:01:40;;;;;;;5.85;1.98;;;;;;;6.69;100.00;99831.09;1777510;77;21125;-72
2021/11/24 09:04:07;;;;;;;6.42;2.00;;;;;;;6.79;100.00;99818.25;1786678;78;21076;-72
2021/11/24 09:06:35;;;;;;;7.03;2.00;;;;;;;6.85;100.00;99820.66;1769635;79;21726;-72
2021/11/24 09:09:07;;;;;;;43.63;3.92;;;;;;;6.88;100.00;99828.34;1778227;79;21137;-72
2021/11/24 09:11:51;;;;;;;14.10;3.30;;;;;;;6.93;100.00;99826.47;1774188;79;21026;-71
2021/11/24 09:14:28;;;;;;;18.07;2.30;;;;;;;7.04;100.00;99822.70;1767114;78;21374;-80
2021/11/24 09:17:12;;;;;;;13.22;3.30;;;;;;;7.12;100.00;99823.31;1776389;79;21046;-72
2021/11/24 09:19:46;;;;;;;47.73;6.62;;;;;;;7.17;100.00;99821.42;1787262;78;21029;-72
2021/11/24 09:22:13;;;;;;;45.92;6.03;;;;;;;7.18;100.00;99826.55;1787839;79;20993;-70
2021/11/24 09:24:41;;;;;;;22.35;4.28;;;;;;;7.22;100.00;99823.41;1741581;78;21045;-71
2021/11/24 09:27:16;;;;;;;65.72;12.80;;;;;;;7.27;100.00;99826.70;1766555;78;21133;-71
2021/11/24 09:29:41;;;;;;;36.95;6.83;;;;;;;7.33;100.00;99822.61;1776569;78;21094;-70
2021/11/24 09:32:10;;;;;;;37.88;6.95;;;;;;;7.35;100.00;99823.41;1781887;78;21586;-70
2021/11/24 09:34:40;;;;;;;21.25;3.95;;;;;;;7.35;100.00;99822.11;1784424;78;21555;-70
2021/11/24 09:37:08;;;;;;;49.48;9.25;;;;;;;7.35;100.00;99820.81;1776007;79;21180;-71
2021/11/24 09:39:35;;;;;;;34.58;5.83;;;;;;;7.34;100.00;99819.13;1781599;78;21706;-71
2021/11/24 09:42:03;;;;;;;99.75;16.48;;;;;;;7.36;100.00;99812.56;1776738;78;21073;-70
2021/11/24 09:44:33;;;;;;;103.50;16.85;;;;;;;7.38;100.00;99815.52;1789401;79;21153;-71
2021/11/24 09:47:01;;;;;;;104.10;17.92;;;;;;;7.44;100.00;99807.12;1764186;79;21044;-71
2021/11/24 09:49:50;;;;;;;341.88;56.73;;;;;;;7.46;100.00;99806.64;1800204;78;21076;-85
2021/11/24 09:54:59;;;;;;;375.13;67.25;;;;;;;7.48;100.00;99813.91;1614451;84;21265;-70
2021/11/24 09:57:27;;;;;;;335.08;57.55;;;;;;;7.46;100.00;99810.53;1657391;84;21742;-68
2021/11/24 09:59:55;;;;;;;309.45;49.60;;;;;;;7.50;100.00;99812.12;1639904;85;21007;-68
2021/11/24 10:02:23;;;;;;;102.35;19.75;;;;;;;7.53;100.00;99804.22;1640406;85;21376;-70
2021/11/24 10:04:51;;;;;;;293.48;46.30;;;;;;;7.56;100.00;99808.88;1641124;85;21141;-68
2021/11/24 10:07:20;;;;;;;76.97;11.35;;;;;;;7.53;100.00;99811.55;1639258;85;21010;-68
2021/11/24 10:09:49;;;;;;;86.82;13.13;;;;;;;7.44;100.00;99816.22;1614986;84;21117;-72
2021/11/24 10:12:17;;;;;;;47.98;7.40;;;;;;;7.40;100.00;99816.33;1679831;82;20981;-73
2021/11/24 10:14:44;;;;;;;;;;;;;;;7.43;100.00;99815.83;1673931;82;21112;-73
2021/11/24 10:17:17;;;;;;;;;;;;;;;7.42;100.00;99822.75;1680159;83;21145;-73
2021/11/24 10:20:07;;;;;;;5.33;1.45;;;;;;;7.46;100.00;99819.63;1676878;82;20252;-74
2021/11/24 10:22:37;;;;;;;4.87;0.90;;;;;;;7.49;100.00;99814.33;1650815;83;21289;-74
2021/11/24 10:25:17;;;;;;;20.35;2.52;;;;;;;7.49;100.00;99811.73;1667333;83;21082;-75
2021/11/24 10:27:49;;;;;;;15.75;1.27;;;;;;;7.50;100.00;99816.02;1659031;83;20965;-77
2021/11/24 10:30:29;;;;;;;4.83;0.90;;;;;;;7.58;100.00;99798.42;1669178;83;21087;-76
2021/11/24 10:33:18;;;;;;;12.05;1.35;;;;;;;7.58;100.00;99806.22;1684119;82;21683;-76
2021/11/24 10:35:45;;;;;;;5.40;0.93;;;;;;;7.63;100.00;99804.32;1687067;82;21149;-75
2021/11/24 10:38:19;;;;;;;7.35;0.80;;;;;;;7.72;100.00;99801.40;1688989;82;20906;-75
2021/11/24 10:40:48;;;;;;;6.60;1.22;;;;;;;7.77;100.00;99796.89;1661866;83;21034;-75
2021/11/24 10:43:18;;;;;;;12.82;1.70;;;;;;;7.89;100.00;99794.77;1681895;83;21662;-74
2021/11/24 10:46:00;;;;;;;12.68;2.12;;;;;;;7.98;100.00;99789.23;1674462;82;21570;-73
2021/11/24 10:48:30;;;;;;;8.38;1.50;;;;;;;8.02;100.00;99790.84;1676166;82;21336;-75
2021/11/24 10:51:32;;;;;;;10.63;1.50;;;;;;;8.06;100.00;99787.22;1669420;82;21024;-73
2021/11/24 10:54:18;;;;;;;12.68;1.40;;;;;;;8.03;100.00;99789.92;1682756;83;21109;-71
2021/11/24 10:57:08;;;;;;;15.78;2.77;;;;;;;8.03;100.00;99784.73;1672483;82;21118;-73
2021/11/24 10:59:40;;;;;;;22.27;3.20;;;;;;;8.06;100.00;99784.61;1687756;82;21028;-74
2021/11/24 11:02:27;;;;;;;45.05;6.35;;;;;;;8.04;100.00;99791.64;1692542;82;21106;-72
2021/11/24 11:05:22;;;;;;;10.40;2.30;;;;;;;8.09;100.00;99789.70;1700279;82;21811;-72
2021/11/24 11:07:54;;;;;;;41.58;5.67;;;;;;;8.08;100.00;99784.11;1694455;81;21242;-71
2021/11/24 11:10:33;;;;;;;33.30;4.05;;;;;;;8.15;100.00;99789.51;1676868;82;21048;-71
2021/11/24 11:13:49;;;;;;;17.50;3.25;;;;;;;8.16;100.00;99791.19;1693407;82;21105;-70
2021/11/24 11:16:14;;;;;;;36.98;5.40;;;;;;;8.10;100.00;99788.81;1661261;82;21589;-72
2021/11/24 11:18:42;;;;;;;40.13;5.40;;;;;;;7.97;100.00;99787.55;1701443;82;21155;-72
2021/11/24 11:21:15;;;;;;;22.60;3.45;;;;;;;7.89;100.00;99780.02;1700262;82;22607;-73
2021/11/24 11:24:25;;;;;;;37.80;2.52;;;;;;;7.97;100.00;99769.35;1800915;78;21455;-72
2021/11/24 11:26:52;;;;;;;10.40;1.90;;;;;;;7.99;100.00;99772.75;1767380;80;21050;-72
2021/11/24 11:29:20;;;;;;;13.25;1.75;;;;;;;7.95;100.00;99766.79;1765536;80;21065;-72
2021/11/24 11:31:49;;;;;;;48.15;5.15;;;;;;;7.92;100.00;99771.27;1744707;80;21724;-70
2021/11/24 11:34:15;;;;;;;60.80;8.15;;;;;;;7.89;100.00;99764.87;1769579;79;21002;-71
2021/11/24 11:36:46;;;;;;;97.90;14.03;;;;;;;7.85;100.00;99774.08;1750757;80;21141;-72
2021/11/24 11:39:13;;;;;;;256.40;43.90;;;;;;;7.85;100.00;99774.08;1768727;79;21565;-73
2021/11/24 11:41:42;;;;;;;104.10;21.68;;;;;;;7.78;100.00;99780.38;1769312;80;21173;-73
2021/11/24 11:44:17;;;;;;;226.12;37.50;;;;;;;7.74;100.00;99783.16;1771493;80;21616;-70
2021/11/24 11:46:50;;;;;;;200.47;32.35;;;;;;;7.64;100.00;99774.82;1765982;80;21287;-70